sensor_id;sensor_type;location;lat;lon;timestamp;temperature;humidity
26212;DHT22;13951;49.516;6.094;2023-08-08T00:00:51;14.10;99.90
26212;DHT22;13951;49.516;6.094;2023-08-08T00:03:28;14.10;99.90
26212;DHT22;13951;49.516;6.094;2023-08-08T00:15:04;13.90;99.90
26212;DHT22;13951;49.516;6.094;2023-08-08T00:17:39;13.90;99.90
26212;DHT22;13951;49.516;6.094;2023-08-08T00:20:14;13.90;99.90
26212;DHT22;13951;49.516;6.094;2023-08-08T00:47:41;13.70;99.90
26212;DHT22;13951;49.516;6.094;2023-08-08T00:50:15;13.70;99.90
26212;DHT22;13951;49.516;6.094;2023-08-08T00:52:51;13.60;99.90
26212;DHT22;13951;49.516;6.094;2023-08-08T00:55:25;13.60;99.90
26212;DHT22;13951;49.516;6.094;2023-08-08T00:57:59;13.60;99.90
26212;DHT22;13951;49.516;6.094;2023-08-08T01:00:33;13.50;99.90
26212;DHT22;13951;49.516;6.094;2023-08-08T01:03:07;13.50;99.90
26212;DHT22;13951;49.516;6.094;2023-08-08T01:05:48;13.50;99.90
26212;DHT22;13951;49.516;6.094;2023-08-08T01:08:33;13.40;99.90
26212;DHT22;13951;49.516;6.094;2023-08-08T01:11:10;13.40;99.90
26212;DHT22;13951;49.516;6.094;2023-08-08T01:13:44;13.40;99.90
26212;DHT22;13951;49.516;6.094;2023-08-08T01:16:21;13.40;99.90
26212;DHT22;13951;49.516;6.094;2023-08-08T01:18:55;13.40;99.90
26212;DHT22;13951;49.516;6.094;2023-08-08T01:21:33;13.30;99.90
26212;DHT22;13951;49.516;6.094;2023-08-08T01:27:05;13.20;99.90
26212;DHT22;13951;49.516;6.094;2023-08-08T01:29:41;13.20;99.90
26212;DHT22;13951;49.516;6.094;2023-08-08T01:32:15;13.10;99.90
26212;DHT22;13951;49.516;6.094;2023-08-08T01:34:50;13.10;99.90
26212;DHT22;13951;49.516;6.094;2023-08-08T01:37:39;13.00;99.90
26212;DHT22;13951;49.516;6.094;2023-08-08T01:40:17;13.00;99.90
26212;DHT22;13951;49.516;6.094;2023-08-08T01:42:52;13.10;99.90
26212;DHT22;13951;49.516;6.094;2023-08-08T01:45:26;13.00;99.90
26212;DHT22;13951;49.516;6.094;2023-08-08T01:48:00;13.00;99.90
26212;DHT22;13951;49.516;6.094;2023-08-08T01:50:40;13.00;99.90
26212;DHT22;13951;49.516;6.094;2023-08-08T01:53:14;13.00;99.90
26212;DHT22;13951;49.516;6.094;2023-08-08T01:55:50;13.00;99.90
26212;DHT22;13951;49.516;6.094;2023-08-08T01:58:25;13.00;99.90
26212;DHT22;13951;49.516;6.094;2023-08-08T02:01:00;12.90;99.90
26212;DHT22;13951;49.516;6.094;2023-08-08T02:03:35;13.00;99.90
26212;DHT22;13951;49.516;6.094;2023-08-08T02:06:10;12.90;99.90
26212;DHT22;13951;49.516;6.094;2023-08-08T02:08:45;12.90;99.90
26212;DHT22;13951;49.516;6.094;2023-08-08T02:11:19;12.90;99.90
26212;DHT22;13951;49.516;6.094;2023-08-08T02:16:31;12.80;99.90
26212;DHT22;13951;49.516;6.094;2023-08-08T02:19:04;12.80;99.90
26212;DHT22;13951;49.516;6.094;2023-08-08T02:21:38;12.70;99.90
26212;DHT22;13951;49.516;6.094;2023-08-08T02:24:11;12.70;99.90
26212;DHT22;13951;49.516;6.094;2023-08-08T02:26:46;12.70;99.90
26212;DHT22;13951;49.516;6.094;2023-08-08T02:29:20;12.70;99.90
26212;DHT22;13951;49.516;6.094;2023-08-08T02:31:53;12.70;99.90
26212;DHT22;13951;49.516;6.094;2023-08-08T02:34:27;12.60;99.90
26212;DHT22;13951;49.516;6.094;2023-08-08T02:37:01;12.60;99.90
26212;DHT22;13951;49.516;6.094;2023-08-08T02:39:35;12.60;99.90
26212;DHT22;13951;49.516;6.094;2023-08-08T02:42:09;12.50;99.90
26212;DHT22;13951;49.516;6.094;2023-08-08T02:44:43;12.50;99.90
26212;DHT22;13951;49.516;6.094;2023-08-08T02:47:17;12.50;99.90
26212;DHT22;13951;49.516;6.094;2023-08-08T02:49:50;12.50;99.90
26212;DHT22;13951;49.516;6.094;2023-08-08T02:52:24;12.50;99.90
26212;DHT22;13951;49.516;6.094;2023-08-08T02:54:59;12.50;99.90
26212;DHT22;13951;49.516;6.094;2023-08-08T02:57:35;12.50;99.90
26212;DHT22;13951;49.516;6.094;2023-08-08T03:00:11;12.50;99.90
26212;DHT22;13951;49.516;6.094;2023-08-08T03:02:48;12.50;99.90
26212;DHT22;13951;49.516;6.094;2023-08-08T03:05:22;12.50;99.90
26212;DHT22;13951;49.516;6.094;2023-08-08T03:07:56;12.50;99.90
26212;DHT22;13951;49.516;6.094;2023-08-08T03:10:32;12.50;99.90
26212;DHT22;13951;49.516;6.094;2023-08-08T03:13:05;12.50;99.90
26212;DHT22;13951;49.516;6.094;2023-08-08T03:15:39;12.50;99.90
26212;DHT22;13951;49.516;6.094;2023-08-08T03:18:13;12.50;99.90
26212;DHT22;13951;49.516;6.094;2023-08-08T03:20:47;12.60;99.90
26212;DHT22;13951;49.516;6.094;2023-08-08T03:23:22;12.60;99.90
26212;DHT22;13951;49.516;6.094;2023-08-08T03:25:58;12.50;99.90
26212;DHT22;13951;49.516;6.094;2023-08-08T03:28:32;12.60;99.90
26212;DHT22;13951;49.516;6.094;2023-08-08T03:31:06;12.50;99.90
26212;DHT22;13951;49.516;6.094;2023-08-08T03:33:40;12.50;99.90
26212;DHT22;13951;49.516;6.094;2023-08-08T03:36:16;12.50;99.90
26212;DHT22;13951;49.516;6.094;2023-08-08T03:38:49;12.40;99.90
26212;DHT22;13951;49.516;6.094;2023-08-08T03:41:24;12.40;99.90
26212;DHT22;13951;49.516;6.094;2023-08-08T03:43:57;12.30;99.90
26212;DHT22;13951;49.516;6.094;2023-08-08T03:46:33;12.30;99.90
26212;DHT22;13951;49.516;6.094;2023-08-08T03:49:07;12.30;99.90
26212;DHT22;13951;49.516;6.094;2023-08-08T03:51:41;12.20;99.90
26212;DHT22;13951;49.516;6.094;2023-08-08T03:54:16;12.20;99.90
26212;DHT22;13951;49.516;6.094;2023-08-08T03:56:51;12.20;99.90
26212;DHT22;13951;49.516;6.094;2023-08-08T03:59:26;12.10;99.90
26212;DHT22;13951;49.516;6.094;2023-08-08T04:02:00;12.10;99.90
26212;DHT22;13951;49.516;6.094;2023-08-08T04:04:35;12.10;99.90
26212;DHT22;13951;49.516;6.094;2023-08-08T04:07:08;12.10;99.90
26212;DHT22;13951;49.516;6.094;2023-08-08T04:09:43;12.10;99.90
26212;DHT22;13951;49.516;6.094;2023-08-08T04:12:16;12.10;99.90
26212;DHT22;13951;49.516;6.094;2023-08-08T04:14:50;12.10;99.90
26212;DHT22;13951;49.516;6.094;2023-08-08T04:17:23;12.10;99.90
26212;DHT22;13951;49.516;6.094;2023-08-08T04:19:57;12.10;99.90
26212;DHT22;13951;49.516;6.094;2023-08-08T04:25:33;12.10;99.90
26212;DHT22;13951;49.516;6.094;2023-08-08T04:28:06;12.10;99.90
26212;DHT22;13951;49.516;6.094;2023-08-08T04:30:41;12.10;99.90
26212;DHT22;13951;49.516;6.094;2023-08-08T04:33:15;12.10;99.90
26212;DHT22;13951;49.516;6.094;2023-08-08T04:35:49;12.20;99.90
26212;DHT22;13951;49.516;6.094;2023-08-08T04:38:24;12.20;99.90
26212;DHT22;13951;49.516;6.094;2023-08-08T04:40:57;12.20;99.90
26212;DHT22;13951;49.516;6.094;2023-08-08T04:43:31;12.20;99.90
26212;DHT22;13951;49.516;6.094;2023-08-08T04:46:04;12.20;99.90
26212;DHT22;13951;49.516;6.094;2023-08-08T04:48:38;12.20;99.90
26212;DHT22;13951;49.516;6.094;2023-08-08T04:51:11;12.10;99.90
26212;DHT22;13951;49.516;6.094;2023-08-08T04:53:45;12.10;99.90
26212;DHT22;13951;49.516;6.094;2023-08-08T04:56:18;12.10;99.90
26212;DHT22;13951;49.516;6.094;2023-08-08T04:58:51;12.10;99.90
26212;DHT22;13951;49.516;6.094;2023-08-08T05:01:24;12.10;99.90
26212;DHT22;13951;49.516;6.094;2023-08-08T05:03:58;12.20;99.90
26212;DHT22;13951;49.516;6.094;2023-08-08T05:06:32;12.20;99.90
26212;DHT22;13951;49.516;6.094;2023-08-08T05:09:05;12.20;99.90
26212;DHT22;13951;49.516;6.094;2023-08-08T05:11:42;12.30;99.90
26212;DHT22;13951;49.516;6.094;2023-08-08T05:14:15;12.40;99.90
26212;DHT22;13951;49.516;6.094;2023-08-08T05:16:48;12.30;99.90
26212;DHT22;13951;49.516;6.094;2023-08-08T05:19:21;12.40;99.90
26212;DHT22;13951;49.516;6.094;2023-08-08T05:21:55;12.40;99.90
26212;DHT22;13951;49.516;6.094;2023-08-08T05:24:29;12.50;99.90
26212;DHT22;13951;49.516;6.094;2023-08-08T05:27:15;12.60;99.90
26212;DHT22;13951;49.516;6.094;2023-08-08T05:29:48;12.60;99.90
26212;DHT22;13951;49.516;6.094;2023-08-08T05:32:22;12.70;99.90
26212;DHT22;13951;49.516;6.094;2023-08-08T05:34:55;12.80;99.90
26212;DHT22;13951;49.516;6.094;2023-08-08T05:37:30;12.90;99.90
26212;DHT22;13951;49.516;6.094;2023-08-08T05:40:03;13.00;99.90
26212;DHT22;13951;49.516;6.094;2023-08-08T05:42:39;13.10;99.90
26212;DHT22;13951;49.516;6.094;2023-08-08T05:45:12;13.20;99.90
26212;DHT22;13951;49.516;6.094;2023-08-08T05:47:45;13.30;99.90
26212;DHT22;13951;49.516;6.094;2023-08-08T05:50:18;13.40;99.90
26212;DHT22;13951;49.516;6.094;2023-08-08T05:52:52;13.60;99.90
26212;DHT22;13951;49.516;6.094;2023-08-08T05:55:25;13.70;99.90
26212;DHT22;13951;49.516;6.094;2023-08-08T05:57:58;13.90;99.90
26212;DHT22;13951;49.516;6.094;2023-08-08T06:00:31;14.00;99.90
26212;DHT22;13951;49.516;6.094;2023-08-08T06:03:05;14.10;99.90
26212;DHT22;13951;49.516;6.094;2023-08-08T06:05:38;14.30;99.90
26212;DHT22;13951;49.516;6.094;2023-08-08T06:08:11;14.40;99.90
26212;DHT22;13951;49.516;6.094;2023-08-08T06:10:46;14.60;99.90
26212;DHT22;13951;49.516;6.094;2023-08-08T06:13:19;14.80;99.90
26212;DHT22;13951;49.516;6.094;2023-08-08T06:15:52;14.90;99.90
26212;DHT22;13951;49.516;6.094;2023-08-08T06:18:26;15.10;99.90
26212;DHT22;13951;49.516;6.094;2023-08-08T06:20:59;15.30;99.90
26212;DHT22;13951;49.516;6.094;2023-08-08T06:23:32;15.40;99.90
26212;DHT22;13951;49.516;6.094;2023-08-08T06:26:06;15.50;99.90
26212;DHT22;13951;49.516;6.094;2023-08-08T06:28:40;15.50;99.90
26212;DHT22;13951;49.516;6.094;2023-08-08T06:31:14;15.60;99.90
26212;DHT22;13951;49.516;6.094;2023-08-08T06:33:47;15.60;99.90
26212;DHT22;13951;49.516;6.094;2023-08-08T06:36:20;15.70;99.90
26212;DHT22;13951;49.516;6.094;2023-08-08T06:38:53;15.90;99.90
26212;DHT22;13951;49.516;6.094;2023-08-08T06:41:27;16.00;99.90
26212;DHT22;13951;49.516;6.094;2023-08-08T06:44:00;16.20;99.90
26212;DHT22;13951;49.516;6.094;2023-08-08T06:46:34;16.40;99.90
26212;DHT22;13951;49.516;6.094;2023-08-08T06:49:07;16.50;99.90
26212;DHT22;13951;49.516;6.094;2023-08-08T06:51:41;16.60;99.90
26212;DHT22;13951;49.516;6.094;2023-08-08T06:54:14;16.70;99.90
26212;DHT22;13951;49.516;6.094;2023-08-08T06:56:51;16.90;99.90
26212;DHT22;13951;49.516;6.094;2023-08-08T06:59:25;17.10;99.90
26212;DHT22;13951;49.516;6.094;2023-08-08T07:01:59;17.30;99.90
26212;DHT22;13951;49.516;6.094;2023-08-08T07:04:32;17.50;99.90
26212;DHT22;13951;49.516;6.094;2023-08-08T07:07:06;17.70;99.90
26212;DHT22;13951;49.516;6.094;2023-08-08T07:09:39;17.80;99.90
26212;DHT22;13951;49.516;6.094;2023-08-08T07:12:12;17.80;99.90
26212;DHT22;13951;49.516;6.094;2023-08-08T07:14:46;17.90;99.90
26212;DHT22;13951;49.516;6.094;2023-08-08T07:17:20;17.80;99.90
26212;DHT22;13951;49.516;6.094;2023-08-08T07:19:53;17.90;99.90
26212;DHT22;13951;49.516;6.094;2023-08-08T07:22:26;18.10;99.90
26212;DHT22;13951;49.516;6.094;2023-08-08T07:24:59;18.10;99.90
26212;DHT22;13951;49.516;6.094;2023-08-08T07:27:33;18.20;99.90
26212;DHT22;13951;49.516;6.094;2023-08-08T07:30:06;18.30;99.90
26212;DHT22;13951;49.516;6.094;2023-08-08T07:32:40;18.60;99.90
26212;DHT22;13951;49.516;6.094;2023-08-08T07:35:13;18.60;99.90
26212;DHT22;13951;49.516;6.094;2023-08-08T07:37:48;18.40;99.90
26212;DHT22;13951;49.516;6.094;2023-08-08T07:40:21;18.30;99.90
26212;DHT22;13951;49.516;6.094;2023-08-08T07:42:54;18.10;99.90
26212;DHT22;13951;49.516;6.094;2023-08-08T07:45:27;18.10;99.90
26212;DHT22;13951;49.516;6.094;2023-08-08T07:48:01;18.20;99.90
26212;DHT22;13951;49.516;6.094;2023-08-08T07:50:34;18.10;99.90
26212;DHT22;13951;49.516;6.094;2023-08-08T07:53:07;18.00;99.90
26212;DHT22;13951;49.516;6.094;2023-08-08T07:55:40;17.80;99.90
26212;DHT22;13951;49.516;6.094;2023-08-08T07:58:13;17.60;99.90
26212;DHT22;13951;49.516;6.094;2023-08-08T08:00:47;17.50;99.90
26212;DHT22;13951;49.516;6.094;2023-08-08T08:03:20;17.40;99.90
26212;DHT22;13951;49.516;6.094;2023-08-08T08:05:54;17.20;99.90
26212;DHT22;13951;49.516;6.094;2023-08-08T08:08:27;17.10;99.90
26212;DHT22;13951;49.516;6.094;2023-08-08T08:11:02;17.10;99.90
26212;DHT22;13951;49.516;6.094;2023-08-08T08:13:35;17.20;99.90
26212;DHT22;13951;49.516;6.094;2023-08-08T08:16:09;17.40;99.90
26212;DHT22;13951;49.516;6.094;2023-08-08T08:18:42;17.50;99.90
26212;DHT22;13951;49.516;6.094;2023-08-08T08:21:16;17.60;99.90
26212;DHT22;13951;49.516;6.094;2023-08-08T08:23:50;17.70;99.90
26212;DHT22;13951;49.516;6.094;2023-08-08T08:26:24;17.60;99.90
26212;DHT22;13951;49.516;6.094;2023-08-08T08:28:57;17.50;99.90
26212;DHT22;13951;49.516;6.094;2023-08-08T08:31:30;17.40;99.90
26212;DHT22;13951;49.516;6.094;2023-08-08T08:34:04;17.40;99.90
26212;DHT22;13951;49.516;6.094;2023-08-08T08:36:38;17.40;99.90
26212;DHT22;13951;49.516;6.094;2023-08-08T08:39:11;17.40;99.90
26212;DHT22;13951;49.516;6.094;2023-08-08T08:41:49;17.50;99.90
26212;DHT22;13951;49.516;6.094;2023-08-08T08:44:22;17.50;99.90
26212;DHT22;13951;49.516;6.094;2023-08-08T08:46:59;17.60;99.90
26212;DHT22;13951;49.516;6.094;2023-08-08T08:49:35;17.80;99.90
26212;DHT22;13951;49.516;6.094;2023-08-08T08:52:09;17.90;99.90
26212;DHT22;13951;49.516;6.094;2023-08-08T08:54:42;18.00;99.90
26212;DHT22;13951;49.516;6.094;2023-08-08T08:57:15;18.20;99.90
26212;DHT22;13951;49.516;6.094;2023-08-08T08:59:49;18.50;99.90
26212;DHT22;13951;49.516;6.094;2023-08-08T09:02:23;18.60;99.90
26212;DHT22;13951;49.516;6.094;2023-08-08T09:04:57;18.80;99.90
26212;DHT22;13951;49.516;6.094;2023-08-08T09:07:34;18.90;99.90
26212;DHT22;13951;49.516;6.094;2023-08-08T09:10:08;19.00;99.90
26212;DHT22;13951;49.516;6.094;2023-08-08T09:12:42;19.20;99.90
26212;DHT22;13951;49.516;6.094;2023-08-08T09:15:15;19.30;99.90
26212;DHT22;13951;49.516;6.094;2023-08-08T09:17:48;19.50;99.90
26212;DHT22;13951;49.516;6.094;2023-08-08T09:20:22;19.70;99.90
26212;DHT22;13951;49.516;6.094;2023-08-08T09:22:55;19.80;99.90
26212;DHT22;13951;49.516;6.094;2023-08-08T09:25:29;19.90;99.90
26212;DHT22;13951;49.516;6.094;2023-08-08T09:28:02;19.80;99.90
26212;DHT22;13951;49.516;6.094;2023-08-08T09:30:35;19.70;99.90
26212;DHT22;13951;49.516;6.094;2023-08-08T09:33:09;19.70;99.90
26212;DHT22;13951;49.516;6.094;2023-08-08T09:35:42;19.60;99.90
26212;DHT22;13951;49.516;6.094;2023-08-08T09:38:16;19.50;99.90
26212;DHT22;13951;49.516;6.094;2023-08-08T09:40:50;19.40;99.90
26212;DHT22;13951;49.516;6.094;2023-08-08T09:43:24;19.50;99.90
26212;DHT22;13951;49.516;6.094;2023-08-08T09:45:58;19.60;99.90
26212;DHT22;13951;49.516;6.094;2023-08-08T09:48:32;19.60;99.90
26212;DHT22;13951;49.516;6.094;2023-08-08T09:51:06;19.80;99.90
26212;DHT22;13951;49.516;6.094;2023-08-08T09:53:41;19.90;99.90
26212;DHT22;13951;49.516;6.094;2023-08-08T09:56:14;20.00;99.90
26212;DHT22;13951;49.516;6.094;2023-08-08T09:58:48;20.00;99.90
26212;DHT22;13951;49.516;6.094;2023-08-08T10:01:21;20.00;99.90
26212;DHT22;13951;49.516;6.094;2023-08-08T10:03:55;20.10;99.90
26212;DHT22;13951;49.516;6.094;2023-08-08T10:06:28;20.10;99.90
26212;DHT22;13951;49.516;6.094;2023-08-08T10:09:03;20.10;99.90
26212;DHT22;13951;49.516;6.094;2023-08-08T10:11:37;20.10;99.90
26212;DHT22;13951;49.516;6.094;2023-08-08T10:14:11;20.20;99.90
26212;DHT22;13951;49.516;6.094;2023-08-08T10:16:44;20.00;99.90
26212;DHT22;13951;49.516;6.094;2023-08-08T10:19:21;20.00;99.90
26212;DHT22;13951;49.516;6.094;2023-08-08T10:22:05;20.00;99.90
26212;DHT22;13951;49.516;6.094;2023-08-08T10:24:38;20.20;99.90
26212;DHT22;13951;49.516;6.094;2023-08-08T10:27:11;20.30;99.90
26212;DHT22;13951;49.516;6.094;2023-08-08T10:29:47;20.40;99.90
26212;DHT22;13951;49.516;6.094;2023-08-08T10:32:24;20.50;99.90
26212;DHT22;13951;49.516;6.094;2023-08-08T10:35:03;20.40;99.90
26212;DHT22;13951;49.516;6.094;2023-08-08T10:37:39;20.40;99.90
26212;DHT22;13951;49.516;6.094;2023-08-08T10:40:17;20.30;99.90
26212;DHT22;13951;49.516;6.094;2023-08-08T10:42:51;20.20;99.90
26212;DHT22;13951;49.516;6.094;2023-08-08T10:45:29;20.20;99.90
26212;DHT22;13951;49.516;6.094;2023-08-08T10:48:09;20.10;99.90
26212;DHT22;13951;49.516;6.094;2023-08-08T10:50:43;20.10;99.90
26212;DHT22;13951;49.516;6.094;2023-08-08T10:53:27;20.00;99.90
26212;DHT22;13951;49.516;6.094;2023-08-08T10:56:03;19.90;99.90
26212;DHT22;13951;49.516;6.094;2023-08-08T10:58:38;20.30;99.90
26212;DHT22;13951;49.516;6.094;2023-08-08T11:01:12;20.60;99.90
26212;DHT22;13951;49.516;6.094;2023-08-08T11:03:47;21.00;99.90
26212;DHT22;13951;49.516;6.094;2023-08-08T11:06:23;21.30;99.90
26212;DHT22;13951;49.516;6.094;2023-08-08T11:08:57;21.50;99.90
26212;DHT22;13951;49.516;6.094;2023-08-08T11:11:36;21.70;99.90
26212;DHT22;13951;49.516;6.094;2023-08-08T11:14:21;21.70;99.90
26212;DHT22;13951;49.516;6.094;2023-08-08T11:16:54;21.40;99.90
26212;DHT22;13951;49.516;6.094;2023-08-08T11:19:28;21.20;99.90
26212;DHT22;13951;49.516;6.094;2023-08-08T11:22:09;21.20;99.90
26212;DHT22;13951;49.516;6.094;2023-08-08T11:24:44;21.20;99.90
26212;DHT22;13951;49.516;6.094;2023-08-08T11:27:18;21.20;99.90
26212;DHT22;13951;49.516;6.094;2023-08-08T11:29:56;21.20;99.90
26212;DHT22;13951;49.516;6.094;2023-08-08T11:32:29;21.20;99.90
26212;DHT22;13951;49.516;6.094;2023-08-08T11:35:04;21.50;99.90
26212;DHT22;13951;49.516;6.094;2023-08-08T11:37:37;21.50;99.90
26212;DHT22;13951;49.516;6.094;2023-08-08T11:40:11;21.40;99.90
26212;DHT22;13951;49.516;6.094;2023-08-08T11:42:47;21.50;99.90
26212;DHT22;13951;49.516;6.094;2023-08-08T11:45:24;21.60;99.90
26212;DHT22;13951;49.516;6.094;2023-08-08T11:47:59;21.60;99.90
26212;DHT22;13951;49.516;6.094;2023-08-08T11:50:32;21.40;99.90
26212;DHT22;13951;49.516;6.094;2023-08-08T11:53:06;21.00;99.90
26212;DHT22;13951;49.516;6.094;2023-08-08T11:55:39;20.80;99.90
26212;DHT22;13951;49.516;6.094;2023-08-08T11:58:14;20.50;99.90
26212;DHT22;13951;49.516;6.094;2023-08-08T12:00:47;20.30;99.90
26212;DHT22;13951;49.516;6.094;2023-08-08T12:03:21;20.00;99.90
26212;DHT22;13951;49.516;6.094;2023-08-08T12:05:54;19.90;99.90
26212;DHT22;13951;49.516;6.094;2023-08-08T12:08:30;19.70;99.90
26212;DHT22;13951;49.516;6.094;2023-08-08T12:11:04;19.60;99.90
26212;DHT22;13951;49.516;6.094;2023-08-08T12:13:44;19.60;99.90
26212;DHT22;13951;49.516;6.094;2023-08-08T12:16:17;19.50;99.90
26212;DHT22;13951;49.516;6.094;2023-08-08T12:18:51;19.50;99.90
26212;DHT22;13951;49.516;6.094;2023-08-08T12:21:24;19.50;99.90
26212;DHT22;13951;49.516;6.094;2023-08-08T12:23:57;19.50;99.90
26212;DHT22;13951;49.516;6.094;2023-08-08T12:26:31;19.60;99.90
26212;DHT22;13951;49.516;6.094;2023-08-08T12:29:06;19.60;99.90
26212;DHT22;13951;49.516;6.094;2023-08-08T12:31:40;19.60;99.90
26212;DHT22;13951;49.516;6.094;2023-08-08T12:34:13;19.50;99.90
26212;DHT22;13951;49.516;6.094;2023-08-08T12:36:46;19.40;99.90
26212;DHT22;13951;49.516;6.094;2023-08-08T12:39:19;19.40;99.90
26212;DHT22;13951;49.516;6.094;2023-08-08T12:41:53;19.30;99.90
26212;DHT22;13951;49.516;6.094;2023-08-08T12:44:26;19.20;99.90
26212;DHT22;13951;49.516;6.094;2023-08-08T12:47:00;19.10;99.90
26212;DHT22;13951;49.516;6.094;2023-08-08T12:49:33;19.10;99.90
26212;DHT22;13951;49.516;6.094;2023-08-08T12:52:06;19.00;99.90
26212;DHT22;13951;49.516;6.094;2023-08-08T12:54:39;19.00;99.90
26212;DHT22;13951;49.516;6.094;2023-08-08T12:57:13;19.00;99.90
26212;DHT22;13951;49.516;6.094;2023-08-08T12:59:46;19.10;99.90
26212;DHT22;13951;49.516;6.094;2023-08-08T13:02:19;19.10;99.90
26212;DHT22;13951;49.516;6.094;2023-08-08T13:04:52;19.20;99.90
26212;DHT22;13951;49.516;6.094;2023-08-08T13:07:25;19.20;99.90
26212;DHT22;13951;49.516;6.094;2023-08-08T13:09:58;19.20;99.90
26212;DHT22;13951;49.516;6.094;2023-08-08T13:12:32;19.20;99.90
26212;DHT22;13951;49.516;6.094;2023-08-08T13:15:05;19.20;99.90
26212;DHT22;13951;49.516;6.094;2023-08-08T13:17:41;19.20;99.90
26212;DHT22;13951;49.516;6.094;2023-08-08T13:20:14;19.20;99.90
26212;DHT22;13951;49.516;6.094;2023-08-08T13:22:47;19.20;99.90
26212;DHT22;13951;49.516;6.094;2023-08-08T13:25:20;19.30;99.90
26212;DHT22;13951;49.516;6.094;2023-08-08T13:27:53;19.40;99.90
26212;DHT22;13951;49.516;6.094;2023-08-08T13:30:27;19.40;99.90
26212;DHT22;13951;49.516;6.094;2023-08-08T13:33:00;19.40;99.90
26212;DHT22;13951;49.516;6.094;2023-08-08T13:35:35;19.40;99.90
26212;DHT22;13951;49.516;6.094;2023-08-08T13:38:08;19.40;99.90
26212;DHT22;13951;49.516;6.094;2023-08-08T13:40:47;19.30;99.90
26212;DHT22;13951;49.516;6.094;2023-08-08T13:43:21;19.40;99.90
26212;DHT22;13951;49.516;6.094;2023-08-08T13:45:55;19.50;99.90
26212;DHT22;13951;49.516;6.094;2023-08-08T13:48:28;19.50;99.90
26212;DHT22;13951;49.516;6.094;2023-08-08T13:51:02;19.50;99.90
26212;DHT22;13951;49.516;6.094;2023-08-08T13:53:36;19.40;99.90
26212;DHT22;13951;49.516;6.094;2023-08-08T13:56:09;19.40;99.90
26212;DHT22;13951;49.516;6.094;2023-08-08T13:58:43;19.20;99.90
26212;DHT22;13951;49.516;6.094;2023-08-08T14:01:17;19.10;99.90
26212;DHT22;13951;49.516;6.094;2023-08-08T14:03:50;19.10;99.90
26212;DHT22;13951;49.516;6.094;2023-08-08T14:06:23;19.10;99.90
26212;DHT22;13951;49.516;6.094;2023-08-08T14:08:59;19.00;99.90
26212;DHT22;13951;49.516;6.094;2023-08-08T14:11:32;18.90;99.90
26212;DHT22;13951;49.516;6.094;2023-08-08T14:14:05;18.90;99.90
26212;DHT22;13951;49.516;6.094;2023-08-08T14:16:38;18.90;99.90
26212;DHT22;13951;49.516;6.094;2023-08-08T14:19:11;18.90;99.90
26212;DHT22;13951;49.516;6.094;2023-08-08T14:21:45;18.90;99.90
26212;DHT22;13951;49.516;6.094;2023-08-08T14:24:19;19.00;99.90
26212;DHT22;13951;49.516;6.094;2023-08-08T14:26:52;19.20;99.90
26212;DHT22;13951;49.516;6.094;2023-08-08T14:29:26;19.30;99.90
26212;DHT22;13951;49.516;6.094;2023-08-08T14:31:59;19.50;99.90
26212;DHT22;13951;49.516;6.094;2023-08-08T14:34:34;19.60;99.90
26212;DHT22;13951;49.516;6.094;2023-08-08T14:37:08;19.60;99.90
26212;DHT22;13951;49.516;6.094;2023-08-08T14:39:41;19.70;99.90
26212;DHT22;13951;49.516;6.094;2023-08-08T14:42:14;19.70;99.90
26212;DHT22;13951;49.516;6.094;2023-08-08T14:44:47;19.80;99.90
26212;DHT22;13951;49.516;6.094;2023-08-08T14:47:23;19.80;99.90
26212;DHT22;13951;49.516;6.094;2023-08-08T14:49:57;19.80;99.90
26212;DHT22;13951;49.516;6.094;2023-08-08T14:52:30;19.80;99.90
26212;DHT22;13951;49.516;6.094;2023-08-08T14:55:04;19.80;99.90
26212;DHT22;13951;49.516;6.094;2023-08-08T14:57:37;19.80;99.90
26212;DHT22;13951;49.516;6.094;2023-08-08T15:00:11;19.80;99.90
26212;DHT22;13951;49.516;6.094;2023-08-08T15:02:45;19.80;99.90
26212;DHT22;13951;49.516;6.094;2023-08-08T15:05:18;19.90;99.90
26212;DHT22;13951;49.516;6.094;2023-08-08T15:07:51;20.00;99.90
26212;DHT22;13951;49.516;6.094;2023-08-08T15:10:24;20.00;99.90
26212;DHT22;13951;49.516;6.094;2023-08-08T15:12:58;19.90;99.90
26212;DHT22;13951;49.516;6.094;2023-08-08T15:15:31;19.80;99.90
26212;DHT22;13951;49.516;6.094;2023-08-08T15:18:04;19.80;99.90
26212;DHT22;13951;49.516;6.094;2023-08-08T15:20:37;19.70;99.90
26212;DHT22;13951;49.516;6.094;2023-08-08T15:23:10;19.70;99.90
26212;DHT22;13951;49.516;6.094;2023-08-08T15:25:44;19.60;99.90
26212;DHT22;13951;49.516;6.094;2023-08-08T15:28:17;19.70;99.90
26212;DHT22;13951;49.516;6.094;2023-08-08T15:30:50;19.70;99.90
26212;DHT22;13951;49.516;6.094;2023-08-08T15:33:23;19.80;99.90
26212;DHT22;13951;49.516;6.094;2023-08-08T15:35:57;20.00;99.90
26212;DHT22;13951;49.516;6.094;2023-08-08T15:38:31;20.00;99.90
26212;DHT22;13951;49.516;6.094;2023-08-08T15:41:04;20.10;99.90
26212;DHT22;13951;49.516;6.094;2023-08-08T15:43:38;20.10;99.90
26212;DHT22;13951;49.516;6.094;2023-08-08T15:46:11;20.00;99.90
26212;DHT22;13951;49.516;6.094;2023-08-08T15:48:44;19.90;99.90
26212;DHT22;13951;49.516;6.094;2023-08-08T15:51:17;19.70;99.90
26212;DHT22;13951;49.516;6.094;2023-08-08T15:53:50;19.70;99.90
26212;DHT22;13951;49.516;6.094;2023-08-08T15:56:24;19.70;99.90
26212;DHT22;13951;49.516;6.094;2023-08-08T15:58:58;19.70;99.90
26212;DHT22;13951;49.516;6.094;2023-08-08T16:01:31;19.70;99.90
26212;DHT22;13951;49.516;6.094;2023-08-08T16:04:06;19.80;99.90
26212;DHT22;13951;49.516;6.094;2023-08-08T16:06:39;19.80;99.90
26212;DHT22;13951;49.516;6.094;2023-08-08T16:09:12;19.80;99.90
26212;DHT22;13951;49.516;6.094;2023-08-08T16:11:52;19.80;99.90
26212;DHT22;13951;49.516;6.094;2023-08-08T16:14:26;19.80;99.90
26212;DHT22;13951;49.516;6.094;2023-08-08T16:16:59;19.80;99.90
26212;DHT22;13951;49.516;6.094;2023-08-08T16:19:33;19.80;99.90
26212;DHT22;13951;49.516;6.094;2023-08-08T16:22:06;19.80;99.90
26212;DHT22;13951;49.516;6.094;2023-08-08T16:24:39;19.70;99.90
26212;DHT22;13951;49.516;6.094;2023-08-08T16:27:12;19.70;99.90
26212;DHT22;13951;49.516;6.094;2023-08-08T16:29:45;19.70;99.90
26212;DHT22;13951;49.516;6.094;2023-08-08T16:32:19;19.70;99.90
26212;DHT22;13951;49.516;6.094;2023-08-08T16:34:53;19.60;99.90
26212;DHT22;13951;49.516;6.094;2023-08-08T16:37:26;19.60;99.90
26212;DHT22;13951;49.516;6.094;2023-08-08T16:39:59;19.50;99.90
26212;DHT22;13951;49.516;6.094;2023-08-08T16:42:32;19.50;99.90
26212;DHT22;13951;49.516;6.094;2023-08-08T16:45:06;19.40;99.90
26212;DHT22;13951;49.516;6.094;2023-08-08T16:47:39;19.40;99.90
26212;DHT22;13951;49.516;6.094;2023-08-08T16:50:12;19.30;99.90
26212;DHT22;13951;49.516;6.094;2023-08-08T16:52:45;19.30;99.90
26212;DHT22;13951;49.516;6.094;2023-08-08T16:55:19;19.30;99.90